プンタアレナス の空港の天気 - METARとTAF

プンタアレナス空港 ( SCCI / PUQ ) - チリ プンタアレナス
飛行場実況気象(Metar)
観測時間08/04 18:00 CLT (08/04 22:00 UTC)
風向・風速北 6m/s
視程10km以上
天気現象
少しの雲 雲底高度 1220m
全天の4割程度の雲 雲底高度 4880m
気温6℃
湿度65%
気圧1001hPa
METARSCCI 042200Z 36012KT 9999 FEW040 SCT160 06/M00 Q1001 NOSIG
過去の天気等 Google飛行場航空写真 Wunderground天気予報

過去48時間のMETAR

飛行場予報(TAF)
発表時間: 8/04 12:28 CLT (8/04 16:28 UTC)
予報対象時間: 4日14時 CLT ~ 5日14時 CLT
風向・風速北北西 13m/s 瞬間風速 18m/s
視程10km以上
全天の4割程度の雲 雲底高度 1070m
全天の8割程度の雲 雲底高度 2130m
4日14時 CLT ~ 4日16時 CLT に徐々に
風向・風速北 8m/s
少しの雲 雲底高度 1310m
4日17時 CLT ~ 4日19時 CLT に徐々に
風向・風速北 5m/s
5日5時 CLT ~ 5日9時 CLT に一時的に
風向・風速不定 2m/s
5日12時 CLT ~ 5日14時 CLT に徐々に
風向・風速南南西 6m/s
視程9000m
全天の4割程度の雲 雲底高度 910m
TAF SCCI 041628Z 0418/0518 34025G35KT 9999 SCT035 BKN070 TN02/0511Z TX08/0418Z
BECMG 0418/0420 35016KT FEW043
BECMG 0421/0423 01010KT
TEMPO 0509/0513 VRB04KT
BECMG 0516/0518 21012KT 9000 SCT030